This is the latest recevied weather packets stored in our database for station/object KF7SOJ. If no packets are shown the sender has not sent any weather packets the latest 10 day(s).
| Time | Temp. | Humidity | Pressure | Rain* | Wind** | Luminosity | Snow |
|---|---|---|---|---|---|---|---|
| 1787914775 | 19.44° C | 59% | 929.9 hPa | 0 mm | - | 0 W/m² | - |
| 1787914469 | 19.44° C | 59% | 930.3 hPa | 0 mm | - | 0 W/m² | - |
| 1787914165 | 19.44° C | 59% | 930.2 hPa | 0 mm | - | 0 W/m² | - |
| 1787913864 | 19.44° C | 60% | 930.2 hPa | 0 mm | - | 0 W/m² | - |
| 1787913559 | 19.44° C | 59% | 930.1 hPa | 0 mm | - | 0 W/m² | - |
| 1787913258 | 18.89° C | 61% | 930 hPa | 0 mm | - | 0 W/m² | - |
| 1787912957 | 18.33° C | 64% | 930.2 hPa | 0 mm | - | 0 W/m² | - |
| 1787912656 | 17.78° C | 67% | 930.3 hPa | 0 mm | - | 0 W/m² | - |
| 1787912356 | 17.78° C | 67% | 930.2 hPa | 0 mm | - | 0 W/m² | - |
| 1787912055 | 17.78° C | 67% | 930.3 hPa | 0 mm | - | 0 W/m² | - |
| 1787911751 | 17.22° C | 67% | 930.3 hPa | 0 mm | - | 0 W/m² | - |
| 1787911451 | 17.78° C | 66% | 930.4 hPa | 0 mm | - | 0 W/m² | - |
| 1787911148 | 18.89° C | 62% | 930.4 hPa | 0 mm | - | 0 W/m² | - |
| 1787910847 | 18.89° C | 60% | 930.6 hPa | 0 mm | - | 0 W/m² | - |
| 1787910542 | 18.89° C | 60% | 930.4 hPa | 0 mm | - | 0 W/m² | - |
| 1787910238 | 19.44° C | 59% | 930.5 hPa | 0 mm | - | 0 W/m² | - |
| 1787909936 | 19.44° C | 58% | 930.5 hPa | 0 mm | - | 0 W/m² | - |
| 1787909634 | 20° C | 56% | 930.3 hPa | 0 mm | - | 0 W/m² | - |
| 1787909329 | 20.56° C | 55% | 930.5 hPa | 0 mm | - | 0 W/m² | - |
| 1787909024 | 20.56° C | 54% | 930.6 hPa | 0 mm | - | 0 W/m² | - |
| 1787908724 | 20.56° C | 55% | 930.9 hPa | 0 mm | - | 0 W/m² | - |
| 1787908419 | 20.56° C | 54% | 931.1 hPa | 0 mm | - | 0 W/m² | - |
| 1787908118 | 20° C | 54% | 930.9 hPa | 0 mm | - | 0 W/m² | - |
| 1787907814 | 19.44° C | 58% | 931 hPa | 0 mm | - | 0 W/m² | - |
| 1787907510 | 18.89° C | 60% | 930.8 hPa | 0 mm | - | 0 W/m² | - |
* Rain latest hour (hover to see other rain measurements)
** Current wind speed in m/s (hover to see current wind gust speed)